Noi Bai International Airport
VVNB : rendu visible

Aérodrome :











RETROUVEZ-NOUS SUR...

 
LOGIN :

S'inscrire | Disclaimer

   EN    FR    IT 

 









Légende :    VFR   VFR Marginal   IFR   IFR Intensif   IFR Très Intensif
Visi : 
Plafond : 
>= 8 km
>= 3000ft
5 à 8 km
1000 à 3000 ft
1500m à 5 km
500 à 1000 ft
800 à 1500m
200 à 500 ft
< 800m
< 200 ft
Symboles :   Orages  Brouillard  Fortes neiges  Fortes précipitations  Vent > 20 kt






- Altitude de l'aérodrome : 39 ft
- Code IATA : HAN


VVNB - Noi Bai International

DERNIER METAR :
  • 120500Z 32003KT 230V360 7000 FEW028 27/17 Q1014 NOSIG

METARs EXPIRÉS :
  • 120430Z 36003KT 250V040 7000 SCT026 OVC035 26/16 Q1014 NOSIG
  • 120400Z 34004KT 280V030 6000 FEW026 OVC036 25/16 Q1015 NOSIG
  • 120330Z 36003KT 300V050 5000 HZ SCT026 BKN034 25/17 Q1016 NOSIG
  • 120300Z 31005KT 270V360 5000 HZ SCT026 BKN033 23/17 Q1016 NOSIG

TAF TAF VVNB
Valide du 12 à 06h jusqu'au 13 à 06h UTC


120500Z 1206/1306 02006KT 6000 SCT020
BECMG 1215/1216 4000 BR
TEMPO 1221/1301 1500 RA BR SCT005 BKN030
BECMG 1302/1304 6000 NSW



MET'MAP, la Météo Aéronautique d'un coup d'oeil ! - Copyright ORBIFLY Décembre 2007 - Disclaimer

ORBIFLY MET'MAP TEAM :

Programmation & Développement : Alexandra Zaïnal
Conception & Développement : Baudouin d'Aumeries
Co-Programmation & Développement : Marc-Olivier Méhu
Soutien technique & logistique : Manuel Goepfert

Contact : metmap@orbifly.com




SOURCES & CREDITS :

   NOAA       Earth
Advisory